sensor_id;sensor_type;location;lat;lon;timestamp;pressure;altitude;pressure_sealevel;temperature;humidity
63739;BME280;68816;45.558;10.070;2024-01-30T00:00:40;101954.69;;;2.54;100.00
63739;BME280;68816;45.558;10.070;2024-01-30T00:03:06;101951.63;;;2.47;100.00
63739;BME280;68816;45.558;10.070;2024-01-30T00:05:31;101948.56;;;2.62;100.00
63739;BME280;68816;45.558;10.070;2024-01-30T00:07:57;101955.69;;;2.53;100.00
63739;BME280;68816;45.558;10.070;2024-01-30T00:10:22;101951.09;;;2.54;100.00
63739;BME280;68816;45.558;10.070;2024-01-30T00:12:48;101945.84;;;2.41;100.00
63739;BME280;68816;45.558;10.070;2024-01-30T00:15:13;101955.03;;;2.40;100.00
63739;BME280;68816;45.558;10.070;2024-01-30T00:17:39;101953.25;;;2.50;100.00
63739;BME280;68816;45.558;10.070;2024-01-30T00:20:05;101942.72;;;2.45;100.00
63739;BME280;68816;45.558;10.070;2024-01-30T00:22:33;101945.00;;;2.40;100.00
63739;BME280;68816;45.558;10.070;2024-01-30T00:24:58;101950.34;;;2.52;99.64
63739;BME280;68816;45.558;10.070;2024-01-30T00:27:24;101945.28;;;2.37;100.00
63739;BME280;68816;45.558;10.070;2024-01-30T00:29:49;101945.41;;;2.36;99.94
63739;BME280;68816;45.558;10.070;2024-01-30T00:32:15;101941.41;;;2.40;99.62
63739;BME280;68816;45.558;10.070;2024-01-30T00:34:41;101941.00;;;2.44;98.86
63739;BME280;68816;45.558;10.070;2024-01-30T00:37:07;101937.53;;;2.42;98.86
63739;BME280;68816;45.558;10.070;2024-01-30T00:39:32;101942.31;;;2.50;98.30
63739;BME280;68816;45.558;10.070;2024-01-30T00:41:58;101938.00;;;2.47;98.33
63739;BME280;68816;45.558;10.070;2024-01-30T00:44:23;101939.53;;;2.40;98.33
63739;BME280;68816;45.558;10.070;2024-01-30T00:46:49;101949.88;;;2.37;98.79
63739;BME280;68816;45.558;10.070;2024-01-30T00:49:14;101936.94;;;2.39;98.38
63739;BME280;68816;45.558;10.070;2024-01-30T00:51:40;101941.56;;;2.38;98.63
63739;BME280;68816;45.558;10.070;2024-01-30T00:54:05;101936.69;;;2.42;98.16
63739;BME280;68816;45.558;10.070;2024-01-30T00:56:31;101933.75;;;2.34;97.84
63739;BME280;68816;45.558;10.070;2024-01-30T00:58:57;101933.81;;;2.43;97.55
63739;BME280;68816;45.558;10.070;2024-01-30T01:01:23;101930.31;;;2.32;97.74
63739;BME280;68816;45.558;10.070;2024-01-30T01:03:48;101934.03;;;2.31;97.78
63739;BME280;68816;45.558;10.070;2024-01-30T01:06:14;101936.91;;;2.29;98.72
63739;BME280;68816;45.558;10.070;2024-01-30T01:08:39;101939.75;;;2.28;98.38
63739;BME280;68816;45.558;10.070;2024-01-30T01:11:05;101941.94;;;2.34;99.08
63739;BME280;68816;45.558;10.070;2024-01-30T01:13:30;101943.19;;;2.20;98.98
63739;BME280;68816;45.558;10.070;2024-01-30T01:15:56;101941.03;;;2.24;98.25
63739;BME280;68816;45.558;10.070;2024-01-30T01:18:21;101943.41;;;2.08;98.71
63739;BME280;68816;45.558;10.070;2024-01-30T01:20:47;101939.84;;;2.17;98.04
63739;BME280;68816;45.558;10.070;2024-01-30T01:23:12;101937.44;;;2.23;99.14
63739;BME280;68816;45.558;10.070;2024-01-30T01:25:38;101938.59;;;2.21;99.98
63739;BME280;68816;45.558;10.070;2024-01-30T01:28:03;101943.75;;;2.24;99.82
63739;BME280;68816;45.558;10.070;2024-01-30T01:30:29;101940.28;;;2.22;100.00
63739;BME280;68816;45.558;10.070;2024-01-30T01:32:55;101938.72;;;2.19;100.00
63739;BME280;68816;45.558;10.070;2024-01-30T01:35:22;101932.94;;;2.13;100.00
63739;BME280;68816;45.558;10.070;2024-01-30T01:37:50;101933.81;;;2.13;100.00
63739;BME280;68816;45.558;10.070;2024-01-30T01:40:26;101933.81;;;2.13;100.00
63739;BME280;68816;45.558;10.070;2024-01-30T01:42:54;101928.81;;;2.18;100.00
63739;BME280;68816;45.558;10.070;2024-01-30T01:45:20;101916.03;;;2.19;100.00
63739;BME280;68816;45.558;10.070;2024-01-30T01:47:49;101927.91;;;2.08;100.00
63739;BME280;68816;45.558;10.070;2024-01-30T01:50:16;101919.78;;;1.97;100.00
63739;BME280;68816;45.558;10.070;2024-01-30T01:52:44;101922.34;;;1.98;100.00
63739;BME280;68816;45.558;10.070;2024-01-30T01:55:11;101919.72;;;2.08;100.00
63739;BME280;68816;45.558;10.070;2024-01-30T01:57:37;101923.84;;;2.02;100.00
63739;BME280;68816;45.558;10.070;2024-01-30T02:00:03;101919.25;;;2.03;100.00
63739;BME280;68816;45.558;10.070;2024-01-30T02:02:35;101917.22;;;2.05;99.58
63739;BME280;68816;45.558;10.070;2024-01-30T02:05:01;101913.59;;;1.95;100.00
63739;BME280;68816;45.558;10.070;2024-01-30T02:07:27;101922.34;;;1.98;99.76
63739;BME280;68816;45.558;10.070;2024-01-30T02:09:53;101918.06;;;1.96;100.00
63739;BME280;68816;45.558;10.070;2024-01-30T02:12:19;101915.81;;;2.11;100.00
63739;BME280;68816;45.558;10.070;2024-01-30T02:14:45;101917.84;;;2.09;100.00
63739;BME280;68816;45.558;10.070;2024-01-30T02:17:12;101919.91;;;1.95;99.18
63739;BME280;68816;45.558;10.070;2024-01-30T02:19:37;101922.97;;;2.02;99.37
63739;BME280;68816;45.558;10.070;2024-01-30T02:22:03;101918.44;;;2.12;99.71
63739;BME280;68816;45.558;10.070;2024-01-30T02:24:29;101915.38;;;2.05;99.39
63739;BME280;68816;45.558;10.070;2024-01-30T02:26:55;101922.53;;;1.97;99.82
63739;BME280;68816;45.558;10.070;2024-01-30T02:29:20;101917.44;;;1.92;99.72
63739;BME280;68816;45.558;10.070;2024-01-30T02:31:46;101920.13;;;2.03;98.46
63739;BME280;68816;45.558;10.070;2024-01-30T02:34:11;101925.78;;;1.91;98.99
63739;BME280;68816;45.558;10.070;2024-01-30T02:36:37;101927.34;;;1.93;100.00
63739;BME280;68816;45.558;10.070;2024-01-30T02:39:03;101919.09;;;2.04;99.54
63739;BME280;68816;45.558;10.070;2024-01-30T02:41:28;101919.06;;;1.95;100.00
63739;BME280;68816;45.558;10.070;2024-01-30T02:43:54;101915.00;;;1.89;100.00
63739;BME280;68816;45.558;10.070;2024-01-30T02:46:19;101918.72;;;1.88;100.00
63739;BME280;68816;45.558;10.070;2024-01-30T02:48:45;101921.06;;;1.72;100.00
63739;BME280;68816;45.558;10.070;2024-01-30T02:51:10;101911.16;;;1.71;100.00
63739;BME280;68816;45.558;10.070;2024-01-30T02:53:36;101923.63;;;1.94;100.00
63739;BME280;68816;45.558;10.070;2024-01-30T02:56:05;101912.69;;;1.85;100.00
63739;BME280;68816;45.558;10.070;2024-01-30T02:58:31;101911.16;;;1.92;100.00
63739;BME280;68816;45.558;10.070;2024-01-30T03:00:56;101909.09;;;1.84;99.97
63739;BME280;68816;45.558;10.070;2024-01-30T03:03:22;101905.16;;;1.77;99.61
63739;BME280;68816;45.558;10.070;2024-01-30T03:05:48;101915.13;;;1.88;99.27
63739;BME280;68816;45.558;10.070;2024-01-30T03:08:13;101908.97;;;1.86;99.75
63739;BME280;68816;45.558;10.070;2024-01-30T03:10:38;101905.75;;;1.81;99.30
63739;BME280;68816;45.558;10.070;2024-01-30T03:13:04;101908.81;;;1.87;99.14
63739;BME280;68816;45.558;10.070;2024-01-30T03:15:29;101906.59;;;1.81;98.55
63739;BME280;68816;45.558;10.070;2024-01-30T03:17:55;101903.34;;;1.87;98.57
63739;BME280;68816;45.558;10.070;2024-01-30T03:20:20;101903.34;;;1.87;98.81
63739;BME280;68816;45.558;10.070;2024-01-30T03:22:46;101908.47;;;1.81;98.67
63739;BME280;68816;45.558;10.070;2024-01-30T03:25:11;101909.88;;;1.75;98.80
63739;BME280;68816;45.558;10.070;2024-01-30T03:27:37;101907.22;;;1.85;99.09
63739;BME280;68816;45.558;10.070;2024-01-30T03:30:02;101900.78;;;1.86;98.63
63739;BME280;68816;45.558;10.070;2024-01-30T03:32:28;101896.19;;;1.86;99.02
63739;BME280;68816;45.558;10.070;2024-01-30T03:34:53;101904.25;;;1.67;99.34
63739;BME280;68816;45.558;10.070;2024-01-30T03:37:19;101912.41;;;1.67;99.48
63739;BME280;68816;45.558;10.070;2024-01-30T03:39:44;101901.75;;;1.64;99.19
63739;BME280;68816;45.558;10.070;2024-01-30T03:42:10;101910.63;;;1.56;99.45
63739;BME280;68816;45.558;10.070;2024-01-30T03:44:35;101905.22;;;1.66;99.25
63739;BME280;68816;45.558;10.070;2024-01-30T03:47:01;101904.56;;;1.74;99.19
63739;BME280;68816;45.558;10.070;2024-01-30T03:49:26;101913.53;;;1.64;99.91
63739;BME280;68816;45.558;10.070;2024-01-30T03:51:51;101906.34;;;1.63;100.00
63739;BME280;68816;45.558;10.070;2024-01-30T03:54:17;101908.25;;;1.63;100.00
63739;BME280;68816;45.558;10.070;2024-01-30T03:56:42;101911.50;;;1.57;100.00
63739;BME280;68816;45.558;10.070;2024-01-30T03:59:08;101899.19;;;1.62;100.00
63739;BME280;68816;45.558;10.070;2024-01-30T04:01:33;101908.53;;;1.70;99.88
63739;BME280;68816;45.558;10.070;2024-01-30T04:03:59;101903.78;;;1.62;100.00
63739;BME280;68816;45.558;10.070;2024-01-30T04:06:24;101904.13;;;1.69;100.00
63739;BME280;68816;45.558;10.070;2024-01-30T04:08:49;101905.75;;;1.60;99.92
63739;BME280;68816;45.558;10.070;2024-01-30T04:11:20;101898.63;;;1.48;99.18
63739;BME280;68816;45.558;10.070;2024-01-30T04:13:46;101905.06;;;1.47;99.48
63739;BME280;68816;45.558;10.070;2024-01-30T04:16:22;101899.63;;;1.47;99.64
63739;BME280;68816;45.558;10.070;2024-01-30T04:18:48;101904.38;;;1.45;99.61
63739;BME280;68816;45.558;10.070;2024-01-30T04:21:14;101906.03;;;1.57;99.96
63739;BME280;68816;45.558;10.070;2024-01-30T04:23:40;101900.78;;;1.65;98.83
63739;BME280;68816;45.558;10.070;2024-01-30T04:26:06;101898.91;;;1.65;98.14
63739;BME280;68816;45.558;10.070;2024-01-30T04:28:31;101891.25;;;1.59;98.29
63739;BME280;68816;45.558;10.070;2024-01-30T04:30:56;101893.13;;;1.59;97.49
63739;BME280;68816;45.558;10.070;2024-01-30T04:33:22;101902.56;;;1.55;97.67
63739;BME280;68816;45.558;10.070;2024-01-30T04:35:47;101903.31;;;1.57;98.80
63739;BME280;68816;45.558;10.070;2024-01-30T04:38:13;101895.06;;;1.68;98.95
63739;BME280;68816;45.558;10.070;2024-01-30T04:40:40;101893.00;;;1.60;99.13
63739;BME280;68816;45.558;10.070;2024-01-30T04:43:05;101900.50;;;1.47;99.34
63739;BME280;68816;45.558;10.070;2024-01-30T04:45:31;101894.81;;;1.50;98.99
63739;BME280;68816;45.558;10.070;2024-01-30T04:47:56;101898.22;;;1.32;99.35
63739;BME280;68816;45.558;10.070;2024-01-30T04:50:23;101891.72;;;1.44;99.18
63739;BME280;68816;45.558;10.070;2024-01-30T04:52:48;101887.56;;;1.40;100.00
63739;BME280;68816;45.558;10.070;2024-01-30T04:55:14;101897.13;;;1.55;98.79
63739;BME280;68816;45.558;10.070;2024-01-30T04:57:40;101894.47;;;1.44;98.86
63739;BME280;68816;45.558;10.070;2024-01-30T05:00:06;101904.84;;;1.50;99.16
63739;BME280;68816;45.558;10.070;2024-01-30T05:02:32;101893.41;;;1.56;98.95
63739;BME280;68816;45.558;10.070;2024-01-30T05:04:57;101892.00;;;1.61;98.95
63739;BME280;68816;45.558;10.070;2024-01-30T05:07:24;101902.81;;;1.52;99.12
63739;BME280;68816;45.558;10.070;2024-01-30T05:09:50;101898.34;;;1.30;99.69
63739;BME280;68816;45.558;10.070;2024-01-30T05:12:15;101896.91;;;1.47;99.08
63739;BME280;68816;45.558;10.070;2024-01-30T05:14:40;101901.69;;;1.34;99.40
63739;BME280;68816;45.558;10.070;2024-01-30T05:17:06;101901.72;;;1.22;99.96
63739;BME280;68816;45.558;10.070;2024-01-30T05:19:33;101902.41;;;1.36;99.37
63739;BME280;68816;45.558;10.070;2024-01-30T05:21:59;101898.28;;;1.41;100.00
63739;BME280;68816;45.558;10.070;2024-01-30T05:24:24;101900.69;;;1.35;100.00
63739;BME280;68816;45.558;10.070;2024-01-30T05:26:49;101896.50;;;1.31;100.00
63739;BME280;68816;45.558;10.070;2024-01-30T05:29:16;101894.28;;;1.24;100.00
63739;BME280;68816;45.558;10.070;2024-01-30T05:31:42;101890.22;;;1.19;100.00
63739;BME280;68816;45.558;10.070;2024-01-30T05:34:07;101907.38;;;1.10;100.00
63739;BME280;68816;45.558;10.070;2024-01-30T05:36:34;101905.66;;;1.30;100.00
63739;BME280;68816;45.558;10.070;2024-01-30T05:38:59;101906.34;;;1.11;100.00
63739;BME280;68816;45.558;10.070;2024-01-30T05:41:25;101907.44;;;1.19;100.00
63739;BME280;68816;45.558;10.070;2024-01-30T05:43:53;101908.03;;;1.23;100.00
63739;BME280;68816;45.558;10.070;2024-01-30T05:46:18;101908.44;;;1.18;100.00
63739;BME280;68816;45.558;10.070;2024-01-30T05:48:44;101907.66;;;1.28;100.00
63739;BME280;68816;45.558;10.070;2024-01-30T05:51:09;101911.94;;;1.09;100.00
63739;BME280;68816;45.558;10.070;2024-01-30T05:53:35;101918.25;;;1.10;100.00
63739;BME280;68816;45.558;10.070;2024-01-30T05:56:04;101912.16;;;1.17;100.00
63739;BME280;68816;45.558;10.070;2024-01-30T05:58:30;101918.00;;;1.13;100.00
63739;BME280;68816;45.558;10.070;2024-01-30T06:00:58;101906.97;;;1.14;100.00
63739;BME280;68816;45.558;10.070;2024-01-30T06:03:24;101919.97;;;1.22;99.83
63739;BME280;68816;45.558;10.070;2024-01-30T06:05:49;101910.41;;;1.28;98.97
63739;BME280;68816;45.558;10.070;2024-01-30T06:08:15;101908.59;;;1.38;98.68
63739;BME280;68816;45.558;10.070;2024-01-30T06:10:40;101909.19;;;1.20;99.28
63739;BME280;68816;45.558;10.070;2024-01-30T06:13:06;101907.97;;;1.13;99.49
63739;BME280;68816;45.558;10.070;2024-01-30T06:15:31;101917.75;;;1.16;99.99
63739;BME280;68816;45.558;10.070;2024-01-30T06:17:58;101915.19;;;1.03;99.30
63739;BME280;68816;45.558;10.070;2024-01-30T06:20:24;101914.78;;;1.08;99.37
63739;BME280;68816;45.558;10.070;2024-01-30T06:22:50;101915.66;;;1.08;97.85
63739;BME280;68816;45.558;10.070;2024-01-30T06:25:15;101910.56;;;1.15;98.69
63739;BME280;68816;45.558;10.070;2024-01-30T06:27:42;101905.28;;;1.02;97.27
63739;BME280;68816;45.558;10.070;2024-01-30T06:30:07;101912.47;;;1.03;96.11
63739;BME280;68816;45.558;10.070;2024-01-30T06:32:33;101915.38;;;1.11;96.86
63739;BME280;68816;45.558;10.070;2024-01-30T06:35:00;101913.19;;;1.05;97.35
63739;BME280;68816;45.558;10.070;2024-01-30T06:37:26;101921.34;;;1.05;98.32
63739;BME280;68816;45.558;10.070;2024-01-30T06:39:51;101916.94;;;1.04;97.22
63739;BME280;68816;45.558;10.070;2024-01-30T06:42:18;101927.50;;;1.18;96.29
63739;BME280;68816;45.558;10.070;2024-01-30T06:44:43;101929.72;;;1.24;96.79
63739;BME280;68816;45.558;10.070;2024-01-30T06:47:09;101929.25;;;1.19;97.58
63739;BME280;68816;45.558;10.070;2024-01-30T06:49:34;101929.16;;;1.10;96.97
63739;BME280;68816;45.558;10.070;2024-01-30T06:52:06;101923.16;;;1.27;96.29
63739;BME280;68816;45.558;10.070;2024-01-30T06:54:32;101925.78;;;1.17;96.94
63739;BME280;68816;45.558;10.070;2024-01-30T06:56:58;101918.41;;;1.29;96.20
63739;BME280;68816;45.558;10.070;2024-01-30T06:59:24;101918.69;;;1.26;96.39
63739;BME280;68816;45.558;10.070;2024-01-30T07:01:49;101925.94;;;1.37;96.63
63739;BME280;68816;45.558;10.070;2024-01-30T07:04:15;101929.09;;;1.53;96.03
63739;BME280;68816;45.558;10.070;2024-01-30T07:06:41;101928.50;;;1.49;96.75
63739;BME280;68816;45.558;10.070;2024-01-30T07:09:06;101925.06;;;1.68;96.06
63739;BME280;68816;45.558;10.070;2024-01-30T07:11:32;101927.09;;;1.76;96.07
63739;BME280;68816;45.558;10.070;2024-01-30T07:13:58;101927.25;;;1.74;96.52
63739;BME280;68816;45.558;10.070;2024-01-30T07:16:23;101927.09;;;1.76;95.96
63739;BME280;68816;45.558;10.070;2024-01-30T07:18:49;101929.91;;;1.64;96.82
63739;BME280;68816;45.558;10.070;2024-01-30T07:21:15;101934.63;;;1.83;96.01
63739;BME280;68816;45.558;10.070;2024-01-30T07:23:40;101929.38;;;1.91;96.09
63739;BME280;68816;45.558;10.070;2024-01-30T07:26:07;101919.88;;;1.86;96.76
63739;BME280;68816;45.558;10.070;2024-01-30T07:28:34;101934.47;;;2.05;96.32
63739;BME280;68816;45.558;10.070;2024-01-30T07:31:00;101928.47;;;2.12;96.10
63739;BME280;68816;45.558;10.070;2024-01-30T07:33:25;101934.72;;;2.23;95.93
63739;BME280;68816;45.558;10.070;2024-01-30T07:35:55;101942.69;;;2.36;94.99
63739;BME280;68816;45.558;10.070;2024-01-30T07:38:21;101941.22;;;2.32;94.76
63739;BME280;68816;45.558;10.070;2024-01-30T07:40:46;101951.88;;;2.35;94.32
63739;BME280;68816;45.558;10.070;2024-01-30T07:43:12;101941.00;;;2.44;93.31
63739;BME280;68816;45.558;10.070;2024-01-30T07:45:37;101951.06;;;2.44;93.54
63739;BME280;68816;45.558;10.070;2024-01-30T07:48:05;101956.97;;;2.49;93.82
63739;BME280;68816;45.558;10.070;2024-01-30T07:50:30;101953.50;;;2.47;92.95
63739;BME280;68816;45.558;10.070;2024-01-30T07:52:56;101950.91;;;2.45;92.98
63739;BME280;68816;45.558;10.070;2024-01-30T07:55:22;101950.25;;;2.63;92.66
63739;BME280;68816;45.558;10.070;2024-01-30T07:57:54;101945.88;;;2.51;93.17
63739;BME280;68816;45.558;10.070;2024-01-30T08:00:21;101954.56;;;2.56;93.34
63739;BME280;68816;45.558;10.070;2024-01-30T08:02:46;101958.94;;;2.68;93.79
63739;BME280;68816;45.558;10.070;2024-01-30T08:05:12;101958.63;;;2.71;93.35
63739;BME280;68816;45.558;10.070;2024-01-30T08:07:39;101957.50;;;2.73;92.36
63739;BME280;68816;45.558;10.070;2024-01-30T08:10:05;101959.69;;;2.79;92.19
63739;BME280;68816;45.558;10.070;2024-01-30T08:12:31;101949.63;;;2.89;92.61
63739;BME280;68816;45.558;10.070;2024-01-30T08:14:56;101957.03;;;3.08;91.60
63739;BME280;68816;45.558;10.070;2024-01-30T08:17:21;101960.50;;;3.20;91.84
63739;BME280;68816;45.558;10.070;2024-01-30T08:19:47;101957.91;;;3.28;92.56
63739;BME280;68816;45.558;10.070;2024-01-30T08:22:12;101960.66;;;3.38;91.95
63739;BME280;68816;45.558;10.070;2024-01-30T08:24:38;101959.94;;;3.26;91.85
63739;BME280;68816;45.558;10.070;2024-01-30T08:27:06;101957.34;;;3.53;91.06
63739;BME280;68816;45.558;10.070;2024-01-30T08:29:31;101954.00;;;3.79;90.24
63739;BME280;68816;45.558;10.070;2024-01-30T08:31:57;101964.38;;;3.85;90.60
63739;BME280;68816;45.558;10.070;2024-01-30T08:34:24;101963.66;;;3.83;91.06
63739;BME280;68816;45.558;10.070;2024-01-30T08:36:49;101963.66;;;3.92;91.10
63739;BME280;68816;45.558;10.070;2024-01-30T08:39:15;101959.81;;;3.66;92.26
63739;BME280;68816;45.558;10.070;2024-01-30T08:41:40;101957.91;;;3.76;91.87
63739;BME280;68816;45.558;10.070;2024-01-30T08:44:06;101962.78;;;4.01;91.07
63739;BME280;68816;45.558;10.070;2024-01-30T08:46:31;101960.84;;;4.21;90.33
63739;BME280;68816;45.558;10.070;2024-01-30T08:48:57;101962.41;;;4.33;89.00
63739;BME280;68816;45.558;10.070;2024-01-30T08:51:22;101960.31;;;4.54;87.43
63739;BME280;68816;45.558;10.070;2024-01-30T08:53:47;101960.56;;;4.24;89.21
63739;BME280;68816;45.558;10.070;2024-01-30T08:56:13;101968.19;;;4.30;89.02
63739;BME280;68816;45.558;10.070;2024-01-30T08:58:39;101969.22;;;4.29;88.52
63739;BME280;68816;45.558;10.070;2024-01-30T09:01:05;101969.28;;;4.47;88.67
63739;BME280;68816;45.558;10.070;2024-01-30T09:03:31;101970.44;;;4.81;87.75
63739;BME280;68816;45.558;10.070;2024-01-30T09:05:57;101971.03;;;5.03;86.89
63739;BME280;68816;45.558;10.070;2024-01-30T09:08:22;101980.03;;;5.22;85.27
63739;BME280;68816;45.558;10.070;2024-01-30T09:10:48;101979.09;;;5.31;83.73
63739;BME280;68816;45.558;10.070;2024-01-30T09:13:15;101979.34;;;5.38;83.35
63739;BME280;68816;45.558;10.070;2024-01-30T09:15:42;101983.38;;;5.16;84.79
63739;BME280;68816;45.558;10.070;2024-01-30T09:18:07;101984.22;;;4.99;86.20
63739;BME280;68816;45.558;10.070;2024-01-30T09:20:33;101984.44;;;4.78;88.66
63739;BME280;68816;45.558;10.070;2024-01-30T09:22:58;101989.13;;;4.95;87.50
63739;BME280;68816;45.558;10.070;2024-01-30T09:25:25;101980.84;;;5.05;86.60
63739;BME280;68816;45.558;10.070;2024-01-30T09:27:50;101989.53;;;5.01;87.58
63739;BME280;68816;45.558;10.070;2024-01-30T09:30:16;101989.41;;;5.20;86.87
63739;BME280;68816;45.558;10.070;2024-01-30T09:32:44;101995.25;;;5.07;87.28
63739;BME280;68816;45.558;10.070;2024-01-30T09:35:10;102003.34;;;5.09;88.19
63739;BME280;68816;45.558;10.070;2024-01-30T09:37:35;102000.84;;;5.15;88.76
63739;BME280;68816;45.558;10.070;2024-01-30T09:40:01;102001.00;;;5.41;87.70
63739;BME280;68816;45.558;10.070;2024-01-30T09:44:57;101993.31;;;5.80;87.03
63739;BME280;68816;45.558;10.070;2024-01-30T09:47:22;102001.16;;;5.57;87.45
63739;BME280;68816;45.558;10.070;2024-01-30T09:49:48;102002.03;;;5.58;87.70
63739;BME280;68816;45.558;10.070;2024-01-30T09:52:14;101997.75;;;5.28;87.99
63739;BME280;68816;45.558;10.070;2024-01-30T09:54:41;102009.97;;;5.33;89.18
63739;BME280;68816;45.558;10.070;2024-01-30T09:57:07;102005.16;;;5.63;88.33
63739;BME280;68816;45.558;10.070;2024-01-30T09:59:33;102005.78;;;5.74;87.59
63739;BME280;68816;45.558;10.070;2024-01-30T10:02:00;101996.31;;;5.87;86.66
63739;BME280;68816;45.558;10.070;2024-01-30T10:04:26;102001.78;;;5.87;85.59
63739;BME280;68816;45.558;10.070;2024-01-30T10:06:51;102001.22;;;5.83;86.82
63739;BME280;68816;45.558;10.070;2024-01-30T10:09:17;102010.19;;;6.03;85.89
63739;BME280;68816;45.558;10.070;2024-01-30T10:11:42;102013.63;;;6.23;85.05
63739;BME280;68816;45.558;10.070;2024-01-30T10:14:08;102009.03;;;6.31;84.41
63739;BME280;68816;45.558;10.070;2024-01-30T10:16:36;102004.66;;;6.38;83.72
63739;BME280;68816;45.558;10.070;2024-01-30T10:19:02;102002.50;;;6.50;83.60
63739;BME280;68816;45.558;10.070;2024-01-30T10:21:29;101998.59;;;6.60;84.17
63739;BME280;68816;45.558;10.070;2024-01-30T10:23:55;101999.09;;;6.56;82.66
63739;BME280;68816;45.558;10.070;2024-01-30T10:26:21;101999.19;;;6.72;82.29
63739;BME280;68816;45.558;10.070;2024-01-30T10:28:47;101993.56;;;6.82;81.71
63739;BME280;68816;45.558;10.070;2024-01-30T10:31:17;101988.38;;;7.05;81.09
63739;BME280;68816;45.558;10.070;2024-01-30T10:33:44;101995.91;;;7.11;80.91
63739;BME280;68816;45.558;10.070;2024-01-30T10:36:13;101986.34;;;7.15;81.86
63739;BME280;68816;45.558;10.070;2024-01-30T10:38:43;101989.84;;;7.33;79.34
63739;BME280;68816;45.558;10.070;2024-01-30T10:41:13;101981.81;;;7.56;79.01
63739;BME280;68816;45.558;10.070;2024-01-30T10:43:41;101976.34;;;7.80;76.35
63739;BME280;68816;45.558;10.070;2024-01-30T10:46:19;101978.94;;;7.98;75.39
63739;BME280;68816;45.558;10.070;2024-01-30T10:48:51;101973.75;;;8.11;73.58
63739;BME280;68816;45.558;10.070;2024-01-30T10:51:22;101971.31;;;8.16;72.96
63739;BME280;68816;45.558;10.070;2024-01-30T10:53:49;101964.09;;;8.23;71.67
63739;BME280;68816;45.558;10.070;2024-01-30T10:56:16;101961.31;;;8.55;71.74
63739;BME280;68816;45.558;10.070;2024-01-30T10:58:42;101967.94;;;8.85;72.03
63739;BME280;68816;45.558;10.070;2024-01-30T11:01:08;101952.69;;;9.05;69.90
63739;BME280;68816;45.558;10.070;2024-01-30T11:03:34;101963.88;;;9.12;70.43
63739;BME280;68816;45.558;10.070;2024-01-30T11:06:02;101953.84;;;9.19;69.02
63739;BME280;68816;45.558;10.070;2024-01-30T11:08:28;101951.00;;;9.27;68.41
63739;BME280;68816;45.558;10.070;2024-01-30T11:10:57;101948.69;;;9.39;69.78
63739;BME280;68816;45.558;10.070;2024-01-30T11:13:30;101939.81;;;9.29;69.68
63739;BME280;68816;45.558;10.070;2024-01-30T11:16:00;101935.75;;;9.39;70.18
63739;BME280;68816;45.558;10.070;2024-01-30T11:18:29;101931.41;;;9.68;68.21
63739;BME280;68816;45.558;10.070;2024-01-30T11:20:56;101933.00;;;9.62;67.27
63739;BME280;68816;45.558;10.070;2024-01-30T11:23:23;101924.41;;;9.80;67.26
63739;BME280;68816;45.558;10.070;2024-01-30T11:25:49;101926.84;;;9.60;67.31
63739;BME280;68816;45.558;10.070;2024-01-30T11:28:15;101914.78;;;10.13;65.98
63739;BME280;68816;45.558;10.070;2024-01-30T11:30:42;101921.84;;;10.83;62.87
63739;BME280;68816;45.558;10.070;2024-01-30T11:33:12;101913.59;;;11.97;59.24
63739;BME280;68816;45.558;10.070;2024-01-30T11:35:42;101904.44;;;12.59;56.28
63739;BME280;68816;45.558;10.070;2024-01-30T11:38:09;101900.25;;;13.84;53.06
63739;BME280;68816;45.558;10.070;2024-01-30T11:40:37;101889.56;;;14.47;50.35
63739;BME280;68816;45.558;10.070;2024-01-30T11:43:05;101883.44;;;14.96;50.16
63739;BME280;68816;45.558;10.070;2024-01-30T11:45:31;101876.22;;;15.27;47.65
63739;BME280;68816;45.558;10.070;2024-01-30T11:47:58;101871.88;;;15.75;45.77
63739;BME280;68816;45.558;10.070;2024-01-30T11:50:32;101856.50;;;16.59;44.02
63739;BME280;68816;45.558;10.070;2024-01-30T11:52:59;101856.44;;;17.02;42.40
63739;BME280;68816;45.558;10.070;2024-01-30T11:55:25;101858.56;;;17.36;41.21
63739;BME280;68816;45.558;10.070;2024-01-30T11:57:51;101849.03;;;17.85;40.51
63739;BME280;68816;45.558;10.070;2024-01-30T12:00:19;101846.56;;;17.77;39.75
63739;BME280;68816;45.558;10.070;2024-01-30T12:02:50;101841.41;;;18.39;38.02
63739;BME280;68816;45.558;10.070;2024-01-30T12:05:16;101830.06;;;17.99;39.35
63739;BME280;68816;45.558;10.070;2024-01-30T12:07:44;101836.00;;;17.79;39.31
63739;BME280;68816;45.558;10.070;2024-01-30T12:10:11;101825.00;;;18.94;36.21
63739;BME280;68816;45.558;10.070;2024-01-30T12:12:36;101822.28;;;19.11;35.23
63739;BME280;68816;45.558;10.070;2024-01-30T12:15:02;101814.06;;;19.94;34.07
63739;BME280;68816;45.558;10.070;2024-01-30T12:17:32;101807.81;;;19.59;33.94
63739;BME280;68816;45.558;10.070;2024-01-30T12:22:36;101808.25;;;20.34;32.83
63739;BME280;68816;45.558;10.070;2024-01-30T12:25:14;101799.31;;;19.54;33.52
63739;BME280;68816;45.558;10.070;2024-01-30T12:27:42;101801.56;;;20.02;33.17
63739;BME280;68816;45.558;10.070;2024-01-30T12:30:13;101794.03;;;19.01;34.73
63739;BME280;68816;45.558;10.070;2024-01-30T12:32:44;101784.88;;;19.95;34.08
63739;BME280;68816;45.558;10.070;2024-01-30T12:35:13;101788.78;;;19.61;33.55
63739;BME280;68816;45.558;10.070;2024-01-30T12:37:41;101773.50;;;20.62;32.46
63739;BME280;68816;45.558;10.070;2024-01-30T12:40:08;101778.25;;;19.85;33.79
63739;BME280;68816;45.558;10.070;2024-01-30T12:42:35;101774.97;;;20.43;30.95
63739;BME280;68816;45.558;10.070;2024-01-30T12:45:02;101767.28;;;20.22;31.33
63739;BME280;68816;45.558;10.070;2024-01-30T12:47:28;101766.84;;;21.12;29.99